createdAt,value
2017-05-21T00:03:37.438Z,1016.1
2017-05-21T00:13:47.927Z,1016.1
2017-05-21T00:23:58.478Z,1016.2
2017-05-21T00:34:09.037Z,1016.2
2017-05-21T00:44:19.631Z,1016.2
2017-05-21T00:54:30.213Z,1016.2
2017-05-21T01:04:40.778Z,1016.2
2017-05-21T01:14:51.373Z,1016.2
2017-05-21T01:25:01.964Z,1016.2
2017-05-21T01:35:12.621Z,1016.3
2017-05-21T01:45:23.295Z,1016.2
2017-05-21T01:55:33.966Z,1016.3
2017-05-21T02:05:44.656Z,1016.4
2017-05-21T02:15:55.376Z,1016.3
2017-05-21T02:26:06.051Z,1016.3
2017-05-21T02:36:16.714Z,1016.3
2017-05-21T02:46:27.391Z,1016.3
2017-05-21T02:56:38.047Z,1016.3
2017-05-21T03:06:48.781Z,1016.3
2017-05-21T03:16:59.386Z,1016.4
2017-05-21T03:27:10.046Z,1016.5
2017-05-21T03:37:20.752Z,1016.4
2017-05-21T03:47:31.404Z,1016.4
2017-05-21T03:57:41.986Z,1016.5
2017-05-21T04:07:52.475Z,1016.6
2017-05-21T04:18:02.831Z,1016.7
2017-05-21T04:28:13.011Z,1016.7
2017-05-21T04:38:23.082Z,1016.8
2017-05-21T04:48:33.102Z,1016.7
2017-05-21T04:58:43.005Z,1016.8
2017-05-21T05:08:52.734Z,1016.9
2017-05-21T05:19:02.354Z,1016.9
2017-05-21T05:29:11.851Z,1017
2017-05-21T05:39:21.208Z,1017
2017-05-21T05:49:30.440Z,1017
2017-05-21T05:59:39.546Z,1017.1
2017-05-21T06:09:48.529Z,1017.3
2017-05-21T06:19:57.334Z,1017.4
2017-05-21T06:30:06.071Z,1017.4
2017-05-21T06:40:14.642Z,1017.5
2017-05-21T06:50:23.195Z,1017.5
2017-05-21T07:00:31.607Z,1017.6
2017-05-21T07:10:39.881Z,1017.5
2017-05-21T07:20:48.004Z,1017.6
2017-05-21T07:30:55.991Z,1017.7
2017-05-21T07:41:03.835Z,1017.6
2017-05-21T07:51:11.597Z,1017.7
2017-05-21T08:01:19.261Z,1017.8
2017-05-21T08:11:26.862Z,1017.7
2017-05-21T08:21:34.256Z,1017.6
2017-05-21T08:31:41.723Z,1017.7
2017-05-21T08:41:49.323Z,1017.7
2017-05-21T08:51:56.957Z,1017.7
2017-05-21T09:02:04.567Z,1017.8
2017-05-21T09:12:12.071Z,1017.7
2017-05-21T09:22:19.525Z,1017.7
2017-05-21T09:32:26.926Z,1017.7
2017-05-21T09:42:34.497Z,1017.8
2017-05-21T09:52:42.143Z,1017.7
2017-05-21T10:02:49.562Z,1017.6
2017-05-21T10:12:57.178Z,1017.7
2017-05-21T10:23:04.662Z,1017.6
2017-05-21T10:33:11.987Z,1017.6
2017-05-21T10:43:19.677Z,1017.6
2017-05-21T10:53:27.579Z,1017.6
2017-05-21T11:03:35.302Z,1017.6
2017-05-21T11:13:42.797Z,1017.6
2017-05-21T11:23:50.060Z,1017.4
2017-05-21T11:33:57.177Z,1017.2
2017-05-21T11:44:04.635Z,1017.1
2017-05-21T11:54:12.248Z,1017.2
2017-05-21T12:04:19.646Z,1017.1
2017-05-21T12:14:26.971Z,1017
2017-05-21T12:24:34.211Z,1016.9
2017-05-21T12:34:41.441Z,1016.9
2017-05-21T12:44:48.388Z,1016.8
2017-05-21T12:54:55.337Z,1016.8
2017-05-21T13:05:02.300Z,1016.6
2017-05-21T13:15:09.382Z,1016.5
2017-05-21T13:25:16.718Z,1016.4
2017-05-21T13:35:23.908Z,1016.5
2017-05-21T13:45:31.005Z,1016.3
2017-05-21T13:55:37.962Z,1016.2
2017-05-21T14:05:44.717Z,1016.1
2017-05-21T14:15:51.785Z,1016
2017-05-21T14:25:58.986Z,1016
2017-05-21T14:36:06.145Z,1015.8
2017-05-21T14:46:13.272Z,1015.8
2017-05-21T14:56:20.477Z,1015.6
2017-05-21T15:06:27.683Z,1015.6
2017-05-21T15:16:34.998Z,1015.5
2017-05-21T15:26:42.562Z,1015.4
2017-05-21T15:36:50.354Z,1015.3
2017-05-21T15:46:58.362Z,1015.2
2017-05-21T15:57:06.047Z,1015.3
2017-05-21T16:07:13.659Z,1015.1
2017-05-21T16:17:21.329Z,1015.1
2017-05-21T16:27:29.068Z,1015
2017-05-21T16:37:36.839Z,1014.9
2017-05-21T16:47:44.821Z,1014.8
2017-05-21T16:57:52.968Z,1014.6
2017-05-21T17:08:01.115Z,1014.6
2017-05-21T17:18:09.391Z,1014.7
2017-05-21T17:28:17.750Z,1014.5
2017-05-21T17:38:26.219Z,1014.5
2017-05-21T17:48:34.714Z,1014.4
2017-05-21T17:58:43.298Z,1014.5
2017-05-21T18:08:51.938Z,1014.4
2017-05-21T18:19:00.600Z,1014.4
2017-05-21T18:29:09.268Z,1014.3
2017-05-21T18:39:18.020Z,1014.2
2017-05-21T18:49:26.741Z,1014.1
2017-05-21T18:59:35.443Z,1014.1
2017-05-21T19:09:44.214Z,1014
2017-05-21T19:19:53.167Z,1014
2017-05-21T19:30:02.232Z,1014
2017-05-21T19:40:11.403Z,1014
2017-05-21T19:50:20.659Z,1013.9
2017-05-21T20:00:29.984Z,1013.9
2017-05-21T20:10:39.289Z,1014.1
2017-05-21T20:20:48.681Z,1013.9
2017-05-21T20:30:58.089Z,1013.9
2017-05-21T20:41:07.553Z,1013.8
2017-05-21T20:51:17.055Z,1013.8
2017-05-21T21:01:26.585Z,1013.7
2017-05-21T21:11:36.105Z,1013.6
2017-05-21T21:21:45.657Z,1013.6
2017-05-21T21:31:55.300Z,1013.5
2017-05-21T21:42:04.946Z,1013.5
2017-05-21T21:52:14.678Z,1013.6
2017-05-21T22:02:24.446Z,1013.6
2017-05-21T22:12:34.260Z,1013.5
2017-05-21T22:22:44.125Z,1013.5
2017-05-21T22:32:54.067Z,1013.4
2017-05-21T22:43:04.008Z,1013.5
2017-05-21T22:53:13.985Z,1013.5
2017-05-21T23:03:23.984Z,1013.3
2017-05-21T23:13:33.950Z,1013.3
2017-05-21T23:23:43.861Z,1013.3
2017-05-21T23:33:53.841Z,1013.2
2017-05-21T23:44:03.839Z,1013.3
2017-05-21T23:54:13.880Z,1013.1
